Time;durP1;ratioP1;P1;durP2;ratioP2;P2;SDS_P1;SDS_P2;PMS_P1;PMS_P2;Temp;Humidity;BMP_temperature;BMP_pressure;BME280_temperature;BME280_humidity;BME280_pressure;Samples;Min_cycle;Max_cycle;Signal;HPM_P1;HPM_P2
2022/07/05 00:00:09;;;;;;;;;1.67;1.00;;;;;21.38;46.30;101956.03;4977215;28;45649;-91
2022/07/05 00:02:35;;;;;;;;;2.00;1.00;;;;;21.10;45.94;101910.97;4976876;28;46612;-92
2022/07/05 00:05:00;;;;;;;;;4.00;4.00;;;;;21.25;46.27;101951.44;4986482;28;45446;-92
2022/07/05 00:07:25;;;;;;;;;2.00;2.00;;;;;21.29;46.43;101955.66;4963316;28;45420;-91
2022/07/05 00:09:53;;;;;;;;;1.67;1.67;;;;;21.29;46.48;101955.66;4981189;28;45474;-93
2022/07/05 00:12:21;;;;;;;;;2.00;1.00;;;;;20.96;46.03;101909.22;4967533;28;46979;-91
2022/07/05 00:14:47;;;;;;;;;1.33;1.33;;;;;21.22;45.98;101958.94;4973923;28;45770;-91
2022/07/05 00:17:13;;;;;;;;;2.33;1.33;;;;;20.94;46.23;101914.75;4979332;28;45482;-91
2022/07/05 00:19:39;;;;;;;;;0.00;0.00;;;;;21.24;46.58;101957.84;4965092;28;45597;-92
2022/07/05 00:22:05;;;;;;;;;0.33;0.33;;;;;21.20;46.64;101959.03;4990539;28;47415;-91
2022/07/05 00:24:30;;;;;;;;;0.00;0.00;;;;;20.84;46.59;101909.09;4979510;28;45359;-90
2022/07/05 00:26:56;;;;;;;;;1.00;0.00;;;;;21.10;46.39;101963.34;4979311;28;45438;-92
2022/07/05 00:29:21;;;;;;;;;1.00;1.00;;;;;20.82;46.97;101912.88;4978920;28;45371;-92
2022/07/05 00:31:47;;;;;;;;;0.00;0.00;;;;;21.06;46.66;101956.41;4961435;28;46070;-90
2022/07/05 00:34:12;;;;;;;;;1.67;1.67;;;;;21.04;46.99;101956.50;4979373;28;45382;-90
2022/07/05 00:36:38;;;;;;;;;1.00;1.00;;;;;20.82;47.29;101932.72;4979491;28;45246;-90
2022/07/05 00:39:05;;;;;;;;;1.00;1.00;;;;;20.92;47.13;101965.47;4998335;28;45698;-91
2022/07/05 00:41:31;;;;;;;;;1.00;1.00;;;;;20.69;47.17;101929.09;4997696;28;46270;-91
2022/07/05 00:44:01;;;;;;;;;1.00;1.00;;;;;20.85;47.22;101965.00;4997938;28;45674;-91
2022/07/05 00:46:28;;;;;;;;;1.00;1.00;;;;;20.57;47.61;101917.22;5002333;28;45850;-91
2022/07/05 00:48:54;;;;;;;;;1.67;1.67;;;;;20.60;47.66;101933.31;5002956;28;45555;-90
2022/07/05 00:51:21;;;;;;;;;1.00;1.00;;;;;20.38;47.52;101914.00;5002716;28;46469;-92
2022/07/05 00:53:47;;;;;;;;;1.00;1.00;;;;;20.63;47.65;101954.75;4998721;28;45496;-90
2022/07/05 00:56:13;;;;;;;;;0.00;0.00;;;;;20.34;47.25;101921.44;4980730;28;45495;-91
2022/07/05 00:58:38;;;;;;;;;1.00;1.00;;;;;20.67;47.60;101963.53;4996725;28;45622;-91
2022/07/05 01:01:06;;;;;;;;;2.00;2.00;;;;;20.52;47.60;101943.72;4996988;28;46288;-91
2022/07/05 01:03:32;;;;;;;;;2.00;0.00;;;;;20.34;47.78;101923.28;4997681;28;45278;-91
2022/07/05 01:06:00;;;;;;;;;2.00;0.00;;;;;20.41;47.57;101930.03;4997526;28;45487;-89
2022/07/05 01:08:25;;;;;;;;;1.33;1.33;;;;;20.01;47.40;101884.78;4998767;28;45467;-91
2022/07/05 01:10:53;;;;;;;;;1.00;0.00;;;;;20.03;47.77;101884.69;4997958;28;46570;-91
2022/07/05 01:13:19;;;;;;;;;3.00;1.00;;;;;20.28;47.57;101937.25;5002579;28;45454;-92
2022/07/05 01:15:44;;;;;;;;;1.00;1.00;;;;;20.40;47.47;101964.38;5016318;28;45554;-91
2022/07/05 01:18:10;;;;;;;;;2.67;1.00;;;;;20.18;47.62;101931.53;5000959;28;45334;-92
2022/07/05 01:20:36;;;;;;;;;0.00;0.00;;;;;20.30;48.26;101956.94;4996673;28;45565;-91
2022/07/05 01:23:03;;;;;;;;;0.00;0.00;;;;;20.27;47.63;101949.91;5004882;28;45503;-91
2022/07/05 01:25:30;;;;;;;;;1.00;1.00;;;;;20.10;47.67;101925.78;5011217;28;45493;-91
2022/07/05 01:27:58;;;;;;;;;3.00;1.00;;;;;20.14;48.17;101949.84;4998257;28;45460;-91
2022/07/05 01:30:24;;;;;;;;;1.00;1.00;;;;;20.10;47.89;101948.28;4997038;28;45413;-92
2022/07/05 01:32:50;;;;;;;;;0.00;0.00;;;;;20.10;48.57;101959.13;4979443;28;45579;-91
2022/07/05 01:35:20;;;;;;;;;2.00;0.33;;;;;20.06;48.22;101956.72;4999042;28;45554;-91
2022/07/05 01:37:50;;;;;;;;;2.33;1.00;;;;;20.03;48.14;101955.06;4986778;28;45548;-90
2022/07/05 01:40:17;;;;;;;;;0.00;0.00;;;;;19.99;48.38;101953.53;4996862;28;45736;-92
2022/07/05 01:42:44;;;;;;;;;0.67;0.67;;;;;19.99;48.54;101958.94;5003718;28;45393;-92
2022/07/05 01:45:10;;;;;;;;;1.00;1.00;;;;;19.95;49.13;101960.13;4997768;28;45485;-90
2022/07/05 01:47:44;;;;;;;;;2.00;0.00;;;;;19.80;49.00;101940.28;4998021;28;45625;-91
2022/07/05 01:50:12;;;;;;;;;0.00;0.00;;;;;19.89;48.99;101955.09;4995986;28;47042;-90
2022/07/05 01:52:42;;;;;;;;;0.00;0.00;;;;;19.85;49.53;101959.81;4983296;28;45419;-91
2022/07/05 01:55:08;;;;;;;;;0.33;0.33;;;;;19.48;49.05;101899.91;5001406;28;45425;-91
2022/07/05 01:57:33;;;;;;;;;1.00;1.00;;;;;19.78;49.57;101953.06;4997786;28;45518;-91
2022/07/05 01:59:59;;;;;;;;;1.00;1.00;;;;;19.25;49.11;101862.63;4997837;28;46505;-92
2022/07/05 02:02:24;;;;;;;;;2.33;1.00;;;;;19.69;48.94;101957.22;4996956;28;45568;-91
2022/07/05 02:04:49;;;;;;;;;0.00;0.00;;;;;19.65;49.54;101962.88;4997425;28;45737;-91
2022/07/05 02:07:15;;;;;;;;;0.00;0.00;;;;;19.56;50.05;101935.44;4998199;28;45438;-90
2022/07/05 02:09:40;;;;;;;;;1.33;1.00;;;;;19.06;49.65;101861.06;4997411;28;46098;-91
2022/07/05 02:12:06;;;;;;;;;1.00;1.00;;;;;19.61;49.65;101940.56;4996214;28;45875;-90
2022/07/05 02:14:32;;;;;;;;;0.67;0.67;;;;;19.62;49.59;101945.03;4987076;28;45428;-91
2022/07/05 02:16:57;;;;;;;;;1.00;1.00;;;;;19.32;50.00;101902.69;4996277;28;45516;-92
2022/07/05 02:19:23;;;;;;;;;1.00;1.00;;;;;19.37;50.00;101908.69;4997416;28;46776;-91
2022/07/05 02:21:48;;;;;;;;;2.00;2.00;;;;;19.37;50.21;101916.78;4997000;28;45479;-91
2022/07/05 02:24:14;;;;;;;;;0.00;0.00;;;;;19.36;49.99;101919.56;4997563;28;45429;-92
2022/07/05 02:26:39;;;;;;;;;1.00;1.00;;;;;19.31;50.31;101921.69;5000592;28;45389;-91
2022/07/05 02:29:05;;;;;;;;;0.00;0.00;;;;;19.47;50.38;101940.56;5009644;28;46068;-91
2022/07/05 02:31:31;;;;;;;;;0.00;0.00;;;;;19.37;51.00;101933.00;4997504;28;45429;-92
2022/07/05 02:33:57;;;;;;;;;0.33;0.33;;;;;19.24;50.78;101904.13;4996732;28;45825;-91
2022/07/05 02:36:23;;;;;;;;;1.00;1.00;;;;;19.00;50.56;101864.13;4996958;28;45465;-91
2022/07/05 02:38:49;;;;;;;;;1.00;0.00;;;;;19.43;51.18;101947.97;4995874;28;46290;-90
2022/07/05 02:41:14;;;;;;;;;0.33;0.33;;;;;19.11;50.84;101898.63;4995819;28;45413;-91
2022/07/05 02:43:40;;;;;;;;;1.00;1.00;;;;;19.32;50.99;101937.84;4995643;28;45726;-92
2022/07/05 02:46:07;;;;;;;;;1.00;1.00;;;;;19.28;51.56;101943.53;4995577;28;45517;-91
2022/07/05 02:48:34;;;;;;;;;1.00;1.00;;;;;19.19;51.37;101929.59;4997056;28;46117;-90
2022/07/05 02:51:01;;;;;;;;;2.00;1.00;;;;;19.19;51.35;101936.84;4979347;28;45504;-91
2022/07/05 02:53:26;;;;;;;;;2.00;2.00;;;;;19.01;51.31;101905.53;4996411;28;45517;-91
2022/07/05 02:55:51;;;;;;;;;2.67;1.00;;;;;18.66;51.66;101855.34;4996879;28;45445;-90
2022/07/05 02:58:17;;;;;;;;;2.33;1.67;;;;;19.05;51.95;101913.34;4996452;28;45808;-91
2022/07/05 03:00:47;;;;;;;;;1.00;1.00;;;;;19.13;51.66;101946.22;4997072;28;45342;-93
2022/07/05 03:03:13;;;;;;;;;1.67;1.67;;;;;18.97;51.96;101921.06;5002050;28;45475;-91
2022/07/05 03:05:39;;;;;;;;;3.00;2.00;;;;;19.15;52.09;101943.38;4995420;28;45458;-91
2022/07/05 03:08:04;;;;;;;;;1.00;1.00;;;;;18.88;52.35;101910.81;5004741;28;46027;-90
2022/07/05 03:10:30;;;;;;;;;3.00;1.00;;;;;18.73;51.80;101893.63;4996366;28;45408;-90
2022/07/05 03:12:55;;;;;;;;;1.00;1.00;;;;;19.03;52.42;101949.53;4988893;28;45352;-91
2022/07/05 03:15:20;;;;;;;;;2.33;1.00;;;;;18.88;52.73;101925.19;4996767;28;46817;-90
2022/07/05 03:17:46;;;;;;;;;1.00;1.00;;;;;18.93;52.56;101950.09;4996293;28;46343;-92
2022/07/05 03:20:11;;;;;;;;;1.00;1.00;;;;;18.58;52.89;101894.56;4995902;28;45523;-91
2022/07/05 03:22:37;;;;;;;;;1.33;1.33;;;;;18.80;52.98;101932.91;4996282;28;45680;-90
2022/07/05 03:25:02;;;;;;;;;1.67;1.33;;;;;18.85;53.51;101949.69;4994909;28;45420;-91
2022/07/05 03:27:28;;;;;;;;;1.67;1.67;;;;;18.53;53.05;101892.13;4998930;28;45479;-90
2022/07/05 03:29:53;;;;;;;;;2.67;2.67;;;;;18.83;53.82;101956.16;5017052;28;45324;-91
2022/07/05 03:32:18;;;;;;;;;1.67;1.00;;;;;18.63;53.90;101925.72;5012180;28;45912;-90
2022/07/05 03:34:44;;;;;;;;;1.67;1.67;;;;;18.66;54.04;101936.38;4995760;28;45551;-90
2022/07/05 03:37:09;;;;;;;;;2.00;2.00;;;;;18.36;53.83;101885.03;4994991;28;48841;-91
2022/07/05 03:39:34;;;;;;;;;1.00;1.00;;;;;18.65;54.01;101940.00;4998623;28;45500;-90
2022/07/05 03:42:00;;;;;;;;;3.33;2.00;;;;;18.74;53.76;101960.22;4999109;28;45364;-89
2022/07/05 03:44:26;;;;;;;;;3.00;1.67;;;;;18.46;53.94;101913.22;4998272;28;46219;-91
2022/07/05 03:46:52;;;;;;;;;2.00;2.00;;;;;18.11;54.42;101850.50;4995620;28;46016;-91
2022/07/05 03:49:17;;;;;;;;;3.67;2.67;;;;;18.67;54.37;101943.50;4998662;28;45399;-90
2022/07/05 03:51:42;;;;;;;;;3.67;2.00;;;;;18.59;54.24;101948.50;5000702;28;45329;-91
2022/07/05 03:54:08;;;;;;;;;5.33;2.00;;;;;18.42;54.18;101916.19;4992796;28;47008;-90
2022/07/05 03:56:33;;;;;;;;;1.67;1.67;;;;;18.78;54.44;101975.34;4999389;28;47454;-91
2022/07/05 03:58:58;;;;;;;;;3.00;1.67;;;;;18.78;54.51;101975.34;4991783;28;46653;-91
2022/07/05 04:01:24;;;;;;;;;3.00;2.33;;;;;18.35;54.06;101900.38;5002091;28;45584;-91
2022/07/05 04:03:49;;;;;;;;;2.00;2.00;;;;;18.20;54.34;101889.59;5013538;28;45417;-91
2022/07/05 04:06:15;;;;;;;;;2.00;2.00;;;;;18.39;54.44;101927.19;4999388;28;46541;-91
2022/07/05 04:08:40;;;;;;;;;1.00;1.00;;;;;18.22;54.69;101910.13;4999205;28;45409;-91
2022/07/05 04:11:06;;;;;;;;;1.33;1.33;;;;;18.63;54.67;101985.13;4993521;28;45696;-90
2022/07/05 04:13:31;;;;;;;;;1.67;1.67;;;;;18.61;54.38;101984.34;5002114;28;45399;-92
2022/07/05 04:15:56;;;;;;;;;2.00;2.00;;;;;18.63;54.53;101985.13;5002751;28;45649;-91
2022/07/05 04:18:22;;;;;;;;;1.67;1.00;;;;;18.25;54.34;101933.38;4999284;28;45420;-90
2022/07/05 04:20:48;;;;;;;;;2.00;1.00;;;;;18.57;54.69;101990.91;4999050;28;45269;-91
2022/07/05 04:23:13;;;;;;;;;1.67;1.67;;;;;18.41;54.75;101973.84;5002239;28;45560;-92
2022/07/05 04:25:39;;;;;;;;;2.00;2.00;;;;;18.31;55.01;101966.28;5017380;28;46001;-89
2022/07/05 04:28:05;;;;;;;;;2.33;2.33;;;;;18.33;55.01;101963.47;4998736;28;45510;-90
2022/07/05 04:30:30;;;;;;;;;3.00;2.00;;;;;18.51;54.84;102008.31;4999501;28;45840;-90
2022/07/05 04:32:55;;;;;;;;;1.33;1.33;;;;;18.52;55.34;102011.91;5004249;28;45424;-91
2022/07/05 04:35:21;;;;;;;;;2.00;2.00;;;;;18.53;55.36;102000.13;5019019;28;45980;-90
2022/07/05 04:37:46;;;;;;;;;2.67;2.00;;;;;18.55;55.31;101995.53;5006726;28;45586;-93
2022/07/05 04:40:13;;;;;;;;;5.00;4.00;;;;;18.59;55.52;102007.00;5002903;28;45963;-84
2022/07/05 04:42:40;;;;;;;;;2.00;2.00;;;;;18.59;55.42;102002.50;4994350;28;45810;-84
2022/07/05 04:45:07;;;;;;;;;3.00;2.00;;;;;18.22;55.56;101928.16;4997058;28;46353;-83
2022/07/05 04:47:33;;;;;;;;;3.00;3.00;;;;;18.11;55.89;101912.56;4997067;28;45507;-83
2022/07/05 04:50:00;;;;;;;;;3.33;2.00;;;;;18.46;55.54;101971.75;4994536;28;45513;-84
2022/07/05 04:52:25;;;;;;;;;3.33;3.33;;;;;18.69;55.78;102002.84;4994335;28;45651;-86
2022/07/05 04:54:51;;;;;;;;;4.67;3.33;;;;;18.23;55.63;101933.44;4989417;28;47054;-88
2022/07/05 04:57:16;;;;;;;;;2.00;2.00;;;;;18.38;55.53;101966.81;4988833;28;45495;-88
2022/07/05 04:59:42;;;;;;;;;10.00;9.33;;;;;18.48;55.69;101986.03;4997279;28;45390;-85
2022/07/05 05:02:07;;;;;;;;;3.00;3.00;;;;;18.26;56.03;101946.78;4994161;28;45546;-88
2022/07/05 05:04:33;;;;;;;;;1.33;1.00;;;;;18.66;56.02;102009.28;4998238;28;46286;-89
2022/07/05 05:06:58;;;;;;;;;3.00;3.00;;;;;18.55;55.87;101966.69;4989089;28;45788;-89
2022/07/05 05:09:24;;;;;;;;;5.33;4.00;;;;;18.62;55.72;101966.34;4996406;28;45476;-89
2022/07/05 05:11:50;;;;;;;;;4.00;4.00;;;;;18.98;55.72;102018.22;4984813;28;45539;-88
2022/07/05 05:14:16;;;;;;;;;2.00;2.00;;;;;18.63;55.46;101938.38;4988217;28;46619;-88
2022/07/05 05:16:41;;;;;;;;;3.00;3.00;;;;;18.84;55.23;101983.06;4995463;28;45703;-88
2022/07/05 05:19:06;;;;;;;;;3.00;3.00;;;;;18.74;55.78;101966.50;4998173;28;45403;-88
2022/07/05 05:21:32;;;;;;;;;4.33;2.33;;;;;19.08;55.67;102007.78;4980964;28;45444;-85
2022/07/05 05:23:57;;;;;;;;;2.33;1.67;;;;;19.20;55.21;102016.97;4996188;28;46156;-84
2022/07/05 05:26:23;;;;;;;;;2.67;2.67;;;;;18.92;54.82;101964.56;4992540;28;45439;-84
2022/07/05 05:28:49;;;;;;;;;4.00;3.00;;;;;19.00;54.87;101974.06;5003921;28;45413;-84
2022/07/05 05:31:14;;;;;;;;;4.00;2.33;;;;;19.39;54.96;102016.75;4998860;28;45372;-84
2022/07/05 05:33:40;;;;;;;;;4.67;3.00;;;;;19.03;54.41;101947.69;4998487;28;45491;-84
2022/07/05 05:36:06;;;;;;;;;5.33;2.33;;;;;18.86;54.56;101916.31;4997744;28;45447;-84
2022/07/05 05:38:31;;;;;;;;;4.67;3.33;;;;;19.07;54.23;101953.81;4980433;28;45477;-84
2022/07/05 05:40:57;;;;;;;;;4.33;4.33;;;;;19.23;54.79;101983.50;4998622;28;45523;-85
2022/07/05 05:43:22;;;;;;;;;3.33;3.33;;;;;19.44;55.00;102036.25;4998726;28;45918;-83
2022/07/05 05:45:48;;;;;;;;;6.00;3.67;;;;;19.44;54.79;102033.56;4998228;28;45397;-83
2022/07/05 05:48:13;;;;;;;;;4.33;3.00;;;;;19.44;55.02;102033.56;4997908;28;45496;-84
2022/07/05 05:50:39;;;;;;;;;3.67;3.67;;;;;19.18;55.52;101994.59;4980759;28;45419;-83
2022/07/05 05:53:05;;;;;;;;;3.67;3.67;;;;;19.31;55.19;102022.59;4980376;28;47392;-83
2022/07/05 05:55:31;;;;;;;;;6.33;4.00;;;;;19.47;55.32;102043.31;4998071;28;45377;-82
2022/07/05 05:58:10;;;;;;;;;7.33;5.00;;;;;19.23;55.60;101997.00;4998211;28;45390;-82
2022/07/05 06:00:35;;;;;;;;;4.00;4.00;;;;;19.46;55.28;102044.28;4993465;28;45548;-81
2022/07/05 06:03:01;;;;;;;;;5.00;5.00;;;;;18.95;55.80;101961.69;4996696;28;45467;-83
2022/07/05 06:05:26;;;;;;;;;5.00;5.00;;;;;19.19;55.92;101997.16;4996550;28;45564;-81
2022/07/05 06:07:54;;;;;;;;;5.67;4.00;;;;;19.20;55.94;101995.38;5006670;28;45325;-82
2022/07/05 06:10:20;;;;;;;;;8.67;4.33;;;;;19.51;56.04;102042.19;5006742;28;45461;-81
2022/07/05 06:12:46;;;;;;;;;6.50;6.50;;;;;19.16;55.91;101983.00;4996950;28;45469;-81
2022/07/05 06:15:11;;;;;;;;;5.00;4.00;;;;;19.49;55.53;102035.97;4997231;28;45473;-81
2022/07/05 06:17:37;;;;;;;;;5.00;5.00;;;;;19.59;55.52;102054.25;4997672;28;45428;-88
2022/07/05 06:20:11;;;;;;;;;7.33;6.00;;;;;19.61;55.67;102055.03;4998149;28;45624;-92
2022/07/05 06:22:37;;;;;;;;;8.00;5.00;;;;;19.29;56.23;101989.41;4995223;28;45451;-89
2022/07/05 06:25:03;;;;;;;;;8.33;5.67;;;;;18.59;55.23;101866.59;4977448;28;45709;-88
2022/07/05 06:27:29;;;;;;;;;5.67;5.00;;;;;19.71;55.73;102044.53;4997664;28;45479;-80
2022/07/05 06:29:54;;;;;;;;;5.00;5.00;;;;;19.59;55.19;102032.59;4997777;28;45463;-80
2022/07/05 06:32:19;;;;;;;;;6.00;4.67;;;;;19.72;57.62;102048.13;4997324;28;45712;-80
2022/07/05 06:34:45;;;;;;;;;8.00;5.33;;;;;19.78;56.87;102051.34;4996835;28;45416;-81
2022/07/05 06:37:10;;;;;;;;;6.67;5.00;;;;;19.69;56.73;102051.00;4997593;28;45436;-80
2022/07/05 06:39:36;;;;;;;;;43.00;34.00;;;;;19.43;57.20;102036.34;4997518;28;45384;-80
2022/07/05 06:42:02;;;;;;;;;9.67;7.00;;;;;18.90;58.26;101971.91;4996863;28;46037;-80
2022/07/05 06:44:27;;;;;;;;;6.00;6.00;;;;;19.15;58.57;101981.22;4977636;28;45585;-79
2022/07/05 06:46:52;;;;;;;;;7.33;7.33;;;;;19.53;58.84;102018.63;4977600;28;47484;-79
2022/07/05 06:49:18;;;;;;;;;6.33;4.33;;;;;19.84;57.97;102044.66;4996263;28;45811;-79
2022/07/05 06:51:44;;;;;;;;;6.00;6.00;;;;;19.94;57.72;102056.66;4996730;28;45949;-79
2022/07/05 06:54:09;;;;;;;;;5.67;5.00;;;;;19.22;56.53;101915.03;4996890;28;45783;-79
2022/07/05 06:56:35;;;;;;;;;9.33;8.00;;;;;20.11;56.38;102063.75;4996780;28;45660;-79
2022/07/05 06:59:00;;;;;;;;;7.67;7.33;;;;;20.16;56.14;102063.44;4993980;28;45476;-79
2022/07/05 07:01:26;;;;;;;;;6.00;5.67;;;;;20.20;55.98;102054.13;4996596;28;46137;-80
2022/07/05 07:03:51;;;;;;;;;5.33;5.33;;;;;19.95;55.39;102001.56;4996125;28;45469;-79
2022/07/05 07:06:16;;;;;;;;;10.00;7.33;;;;;20.23;56.35;102045.84;4996700;28;45405;-79
2022/07/05 07:11:26;;;;;;;;;4.00;4.00;;;;;20.50;55.65;102053.16;4996151;28;45816;-79
2022/07/05 07:13:52;;;;;;;;;5.33;4.67;;;;;20.54;55.16;102052.84;4989956;28;45372;-80
2022/07/05 07:16:17;;;;;;;;;6.67;5.33;;;;;20.46;55.30;102036.22;4996329;28;45855;-79
2022/07/05 07:18:42;;;;;;;;;8.33;7.00;;;;;20.64;55.11;102055.88;4996589;28;45511;-79
2022/07/05 07:21:08;;;;;;;;;8.00;6.00;;;;;20.73;55.46;102055.25;4996508;28;46331;-80
2022/07/05 07:23:33;;;;;;;;;5.33;4.00;;;;;20.86;55.21;102049.88;4996646;28;45430;-80
2022/07/05 07:25:58;;;;;;;;;9.67;4.33;;;;;20.96;54.04;102059.16;4991570;28;46658;-80
2022/07/05 07:28:24;;;;;;;;;6.00;4.00;;;;;21.02;54.99;102061.44;4995913;28;45456;-78
2022/07/05 07:30:49;;;;;;;;;6.00;5.00;;;;;21.09;54.30;102056.47;4996819;28;45920;-79
2022/07/05 07:33:14;;;;;;;;;5.67;5.67;;;;;21.17;53.66;102069.56;4987874;28;45353;-80
2022/07/05 07:35:40;;;;;;;;;7.00;7.00;;;;;21.24;53.86;102060.88;4996857;28;45620;-80
2022/07/05 07:38:05;;;;;;;;;4.00;4.00;;;;;21.32;54.66;102065.78;4978889;28;45477;-82
2022/07/05 07:40:32;;;;;;;;;5.00;5.00;;;;;21.31;54.21;102058.63;4976978;28;47350;-81
2022/07/05 07:42:57;;;;;;;;;6.33;4.00;;;;;21.35;53.24;102064.69;4976304;28;45430;-80
2022/07/05 07:45:22;;;;;;;;;6.33;5.00;;;;;21.27;53.80;102067.94;4976733;28;45953;-79
2022/07/05 07:47:48;;;;;;;;;6.00;4.33;;;;;21.37;53.81;102063.63;4990933;28;45512;-81
2022/07/05 07:50:13;;;;;;;;;4.67;4.67;;;;;21.33;52.87;102047.66;4977509;28;45957;-82
2022/07/05 07:52:38;;;;;;;;;5.67;4.67;;;;;21.53;53.03;102068.03;4976025;28;45495;-80
2022/07/05 07:55:07;;;;;;;;;5.00;4.00;;;;;21.63;53.39;102074.56;4958964;28;45481;-81
2022/07/05 07:57:33;;;;;;;;;3.00;3.00;;;;;21.69;53.15;102072.28;4976873;28;45581;-82
2022/07/05 07:59:58;;;;;;;;;10.00;7.00;;;;;21.79;52.24;102077.94;4975154;28;45971;-81
2022/07/05 08:02:24;;;;;;;;;4.00;4.00;;;;;21.35;52.13;101983.34;4967981;28;45365;-85
2022/07/05 08:04:50;;;;;;;;;6.50;4.00;;;;;21.91;51.27;102068.06;4958575;28;45391;-83
2022/07/05 08:07:17;;;;;;;;;3.33;3.33;;;;;21.98;51.38;102073.94;4959441;28;45639;-85
2022/07/05 08:09:42;;;;;;;;;7.33;6.00;;;;;21.92;51.75;102051.69;4978009;28;46670;-86
2022/07/05 08:12:08;;;;;;;;;4.67;4.33;;;;;22.16;51.33;102071.75;4978932;28;45539;-84
2022/07/05 08:14:33;;;;;;;;;6.33;4.00;;;;;21.88;50.86;102004.00;4971107;28;45382;-84
2022/07/05 08:16:59;;;;;;;;;5.00;4.00;;;;;22.02;50.11;102013.00;4971590;28;45505;-89
2022/07/05 08:22:08;;;;;;;;;4.00;4.00;;;;;22.33;50.61;102033.41;4984501;28;45408;-85
2022/07/05 08:24:35;;;;;;;;;4.00;4.00;;;;;22.35;50.03;102015.16;4978489;28;45416;-92
2022/07/05 08:27:01;;;;;;;;;5.00;4.00;;;;;22.69;49.49;102037.13;4955647;28;45520;-89
2022/07/05 08:29:26;;;;;;;;;3.67;3.67;;;;;22.85;50.13;102050.41;4978886;28;46184;-84
2022/07/05 08:31:52;;;;;;;;;8.33;7.00;;;;;22.91;49.36;102042.69;4978839;28;53938;-85
2022/07/05 08:34:18;;;;;;;;;4.00;4.00;;;;;23.09;48.90;102064.06;4975888;28;45510;-87
2022/07/05 08:36:44;;;;;;;;;6.33;6.33;;;;;22.87;48.59;102008.53;4978483;28;45317;-87
2022/07/05 08:39:10;;;;;;;;;11.00;9.33;;;;;23.24;48.75;102056.59;4980664;28;46216;-84
2022/07/05 08:41:49;;;;;;;;;4.00;4.00;;;;;23.30;48.09;102051.56;4997974;28;45595;-85
2022/07/05 08:44:33;;;;;;;;;7.67;4.00;;;;;23.36;47.70;102045.63;4997072;28;45459;-96
2022/07/05 08:47:02;;;;;;;;;4.33;4.33;;;;;23.39;47.18;102049.97;4994149;28;45585;-84
2022/07/05 08:49:30;;;;;;;;;4.00;4.00;;;;;23.41;47.67;102050.69;4997013;28;46203;-87
2022/07/05 08:51:56;;;;;;;;;6.00;3.00;;;;;22.95;47.04;101964.47;4998468;28;45448;-87
2022/07/05 08:54:23;;;;;;;;;6.00;4.00;;;;;23.48;47.52;102048.38;4993781;28;45480;-89
2022/07/05 08:56:50;;;;;;;;;4.00;4.00;;;;;23.55;47.03;102052.34;4997598;28;45527;-83
2022/07/05 08:59:15;;;;;;;;;4.00;2.67;;;;;23.62;47.19;102047.31;4989264;28;46390;-81
2022/07/05 09:01:44;;;;;;;;;40.33;34.00;;;;;23.70;46.11;102044.88;4992574;28;45358;-85
2022/07/05 09:04:12;;;;;;;;;6.67;5.33;;;;;23.63;46.41;102019.13;4998296;28;45434;-82
2022/07/05 09:06:39;;;;;;;;;5.00;3.67;;;;;23.83;45.34;102044.78;4996409;28;45564;-82
2022/07/05 09:09:06;;;;;;;;;6.00;4.00;;;;;23.87;45.86;102040.84;4997991;28;46068;-84
2022/07/05 09:11:40;;;;;;;;;5.67;4.00;;;;;23.93;45.86;102037.63;4989966;28;45389;-83
2022/07/05 09:14:18;;;;;;;;;18.67;17.67;;;;;23.99;45.67;102037.13;4995501;28;45633;-82
2022/07/05 09:16:44;;;;;;;;;3.67;3.33;;;;;23.78;45.62;101990.69;4967265;28;45561;-82
2022/07/05 09:19:09;;;;;;;;;3.00;3.00;;;;;24.14;45.09;102037.72;4997725;28;46230;-82
2022/07/05 09:21:35;;;;;;;;;4.00;2.33;;;;;24.19;44.47;102036.38;4998541;28;45394;-83
2022/07/05 09:24:04;;;;;;;;;5.00;3.33;;;;;24.26;44.66;102041.34;4997756;28;45479;-82
2022/07/05 09:26:41;;;;;;;;;6.00;3.67;;;;;24.34;43.73;102033.41;4994773;28;45527;-82
2022/07/05 09:29:12;;;;;;;;;5.00;3.00;;;;;24.40;43.94;102030.19;4989646;28;45419;-82
2022/07/05 09:31:40;;;;;;;;;1.00;1.00;;;;;24.37;43.13;102019.50;4997943;28;45432;-82
2022/07/05 09:34:07;;;;;;;;;3.00;3.00;;;;;23.58;43.26;101884.25;4997892;28;45475;-82
2022/07/05 09:36:55;;;;;;;;;2.67;2.00;;;;;24.58;43.00;102036.88;4997378;28;45608;-81
2022/07/05 09:39:30;;;;;;;;;3.67;2.00;;;;;24.67;41.56;102039.81;4978230;28;46932;-82
2022/07/05 09:42:19;;;;;;;;;2.33;1.33;;;;;24.74;42.40;102035.59;4977594;28;45331;-83
2022/07/05 09:44:48;;;;;;;;;2.00;2.00;;;;;24.76;42.24;102033.59;4963305;28;45362;-82
2022/07/05 09:47:19;;;;;;;;;2.00;2.00;;;;;24.84;42.07;102031.09;4978400;28;45360;-82
2022/07/05 09:50:03;;;;;;;;;3.00;3.00;;;;;24.74;42.95;102006.47;4991866;28;45453;-82
2022/07/05 09:52:29;;;;;;;;;5.00;3.00;;;;;25.07;41.56;102034.59;4963176;28;45509;-82
2022/07/05 09:55:04;;;;;;;;;5.67;3.33;;;;;25.17;42.27;102040.16;4977825;28;45460;-83
2022/07/05 09:57:30;;;;;;;;;6.00;3.00;;;;;25.14;42.34;102018.59;4969893;28;45414;-82
2022/07/05 10:00:16;;;;;;;;;3.67;2.00;;;;;25.34;42.48;102031.44;4977680;28;46275;-83
2022/07/05 10:02:42;;;;;;;;;3.00;3.00;;;;;25.41;41.42;102029.91;4964437;28;45400;-83
2022/07/05 10:05:13;;;;;;;;;3.00;3.00;;;;;25.34;42.08;102009.59;4978166;28;45419;-82
2022/07/05 10:07:59;;;;;;;;;3.67;2.00;;;;;25.55;41.23;102031.44;4978091;28;45695;-82
2022/07/05 10:10:30;;;;;;;;;3.67;3.67;;;;;25.56;40.70;102018.63;4961832;28;47337;-83
2022/07/05 10:12:57;;;;;;;;;2.00;2.00;;;;;25.61;41.10;102014.50;4977111;28;45511;-83
2022/07/05 10:15:25;;;;;;;;;5.33;4.00;;;;;25.79;40.60;102020.22;4977809;28;45418;-82
2022/07/05 10:17:56;;;;;;;;;4.00;4.00;;;;;25.87;39.83;102022.28;4976128;28;45469;-84
2022/07/05 10:20:37;;;;;;;;;4.00;3.00;;;;;25.96;40.67;102028.81;4975523;28;45635;-84
2022/07/05 10:23:09;;;;;;;;;2.00;2.00;;;;;26.04;40.34;102034.47;4975838;28;45574;-90
2022/07/05 10:25:39;;;;;;;;;3.00;2.00;;;;;25.81;39.33;101973.66;4973980;28;46549;-85
2022/07/05 10:28:06;;;;;;;;;4.00;3.00;;;;;25.95;38.81;101986.13;4969848;28;46590;-85
2022/07/05 10:30:33;;;;;;;;;3.00;3.00;;;;;26.14;39.07;102009.94;4964711;28;46244;-85
2022/07/05 10:33:01;;;;;;;;;2.67;2.00;;;;;25.87;38.99;101948.53;4977128;28;45382;-85
2022/07/05 10:35:27;;;;;;;;;4.67;3.00;;;;;26.39;38.72;102024.97;4982658;28;45412;-88
2022/07/05 10:37:53;;;;;;;;;4.00;2.33;;;;;26.35;39.04;102009.84;4993186;28;45401;-88
2022/07/05 10:40:21;;;;;;;;;4.00;3.00;;;;;26.47;38.55;102016.94;4994372;28;46734;-89
2022/07/05 10:42:53;;;;;;;;;2.00;2.00;;;;;26.19;38.32;101958.44;4989631;28;45626;-88
2022/07/05 10:45:33;;;;;;;;;3.67;3.67;;;;;26.62;37.85;102006.47;5001525;28;45645;-86
2022/07/05 10:48:11;;;;;;;;;4.67;3.67;;;;;26.53;37.76;101995.34;4992989;28;45531;-87
2022/07/05 10:50:45;;;;;;;;;5.67;4.67;;;;;26.23;37.40;101927.09;4978897;28;48699;-89
2022/07/05 10:53:10;;;;;;;;;2.00;2.00;;;;;25.44;37.49;101783.94;4996130;28;45507;-89
2022/07/05 10:56:08;;;;;;;;;2.67;2.67;;;;;26.98;36.77;102006.81;4995022;28;45531;-89
2022/07/05 10:58:37;;;;;;;;;3.33;3.33;;;;;27.04;36.35;102012.59;4890923;28;45766;-87
2022/07/05 11:01:11;;;;;;;;;2.00;2.00;;;;;27.13;37.22;102008.94;4893754;28;46643;-88
2022/07/05 11:03:41;;;;;;;;;2.67;2.00;;;;;27.19;35.25;102003.94;4895051;29;45480;-88
2022/07/05 11:06:07;;;;;;;;;2.00;2.00;;;;;27.04;36.22;101965.19;4895508;28;45521;-89
2022/07/05 11:09:00;;;;;;;;;1.00;1.00;;;;;27.34;36.52;102002.50;4897633;29;45614;-88
2022/07/05 11:11:26;;;;;;;;;6.67;5.33;;;;;27.42;35.30;102004.50;4896397;28;46305;-89
2022/07/05 11:13:54;;;;;;;;;6.00;4.00;;;;;27.46;35.81;102011.41;4894075;28;45644;-88
2022/07/05 11:16:24;;;;;;;;;5.67;5.00;;;;;27.52;35.38;102010.84;4897579;29;45461;-88
2022/07/05 11:18:52;;;;;;;;;14.00;10.00;;;;;27.58;35.72;102011.13;4895476;28;45476;-87
2022/07/05 11:21:18;;;;;;;;;7.33;4.00;;;;;27.06;34.86;101922.09;4896835;29;46492;-90
2022/07/05 11:23:44;;;;;;;;;5.00;3.33;;;;;27.59;35.44;102011.97;4882647;29;45461;-89
2022/07/05 11:26:12;;;;;;;;;4.33;3.67;;;;;27.53;34.63;102010.69;4894081;29;45380;-89
2022/07/05 11:28:45;;;;;;;;;4.33;2.00;;;;;27.19;34.27;101950.03;4884181;29;45580;-88